sensor_id;sensor_type;location;lat;lon;timestamp;pressure;altitude;pressure_sealevel;temperature
15680;BMP180;15488;48.114;11.532;2023-04-15T00:00:26;94287.00;;;14.70
15680;BMP180;15488;48.114;11.532;2023-04-15T00:02:54;94284.00;;;14.70
15680;BMP180;15488;48.114;11.532;2023-04-15T00:05:21;94280.00;;;14.70
15680;BMP180;15488;48.114;11.532;2023-04-15T00:07:48;94276.00;;;14.70
15680;BMP180;15488;48.114;11.532;2023-04-15T00:10:17;94275.00;;;14.70
15680;BMP180;15488;48.114;11.532;2023-04-15T00:12:45;94266.00;;;14.70
15680;BMP180;15488;48.114;11.532;2023-04-15T00:15:12;94273.00;;;14.80
15680;BMP180;15488;48.114;11.532;2023-04-15T00:17:40;94273.00;;;14.80
15680;BMP180;15488;48.114;11.532;2023-04-15T00:20:08;94269.00;;;14.80
15680;BMP180;15488;48.114;11.532;2023-04-15T00:22:36;94265.00;;;14.80
15680;BMP180;15488;48.114;11.532;2023-04-15T00:25:04;94266.00;;;14.70
15680;BMP180;15488;48.114;11.532;2023-04-15T00:27:32;94263.00;;;14.70
15680;BMP180;15488;48.114;11.532;2023-04-15T00:30:00;94256.00;;;14.80
15680;BMP180;15488;48.114;11.532;2023-04-15T00:32:29;94246.00;;;14.70
15680;BMP180;15488;48.114;11.532;2023-04-15T00:34:56;94253.00;;;14.70
15680;BMP180;15488;48.114;11.532;2023-04-15T00:37:23;94252.00;;;14.80
15680;BMP180;15488;48.114;11.532;2023-04-15T00:39:51;94254.00;;;14.80
15680;BMP180;15488;48.114;11.532;2023-04-15T00:42:19;94247.00;;;14.80
15680;BMP180;15488;48.114;11.532;2023-04-15T00:44:49;94250.00;;;14.80
15680;BMP180;15488;48.114;11.532;2023-04-15T00:47:17;94240.00;;;14.80
15680;BMP180;15488;48.114;11.532;2023-04-15T00:49:45;94240.00;;;14.70
15680;BMP180;15488;48.114;11.532;2023-04-15T00:52:13;94244.00;;;14.60
15680;BMP180;15488;48.114;11.532;2023-04-15T00:54:40;94240.00;;;14.60
15680;BMP180;15488;48.114;11.532;2023-04-15T00:57:08;94240.00;;;14.60
15680;BMP180;15488;48.114;11.532;2023-04-15T00:59:35;94244.00;;;14.70
15680;BMP180;15488;48.114;11.532;2023-04-15T01:02:05;94243.00;;;14.60
15680;BMP180;15488;48.114;11.532;2023-04-15T01:04:33;94240.00;;;14.50
15680;BMP180;15488;48.114;11.532;2023-04-15T01:07:00;94243.00;;;14.50
15680;BMP180;15488;48.114;11.532;2023-04-15T01:09:28;94246.00;;;14.50
15680;BMP180;15488;48.114;11.532;2023-04-15T01:11:55;94243.00;;;14.50
15680;BMP180;15488;48.114;11.532;2023-04-15T01:14:24;94246.00;;;14.40
15680;BMP180;15488;48.114;11.532;2023-04-15T01:16:52;94252.00;;;14.40
15680;BMP180;15488;48.114;11.532;2023-04-15T01:19:21;94241.00;;;14.30
15680;BMP180;15488;48.114;11.532;2023-04-15T01:21:48;94238.00;;;14.30
15680;BMP180;15488;48.114;11.532;2023-04-15T01:24:17;94248.00;;;14.30
15680;BMP180;15488;48.114;11.532;2023-04-15T01:26:46;94243.00;;;14.20
15680;BMP180;15488;48.114;11.532;2023-04-15T01:29:15;94238.00;;;14.20
15680;BMP180;15488;48.114;11.532;2023-04-15T01:31:49;94245.00;;;14.20
15680;BMP180;15488;48.114;11.532;2023-04-15T01:34:17;94239.00;;;14.20
15680;BMP180;15488;48.114;11.532;2023-04-15T01:36:44;94243.00;;;14.20
15680;BMP180;15488;48.114;11.532;2023-04-15T01:39:12;94250.00;;;14.20
15680;BMP180;15488;48.114;11.532;2023-04-15T01:41:39;94254.00;;;14.10
15680;BMP180;15488;48.114;11.532;2023-04-15T01:44:08;94246.00;;;14.10
15680;BMP180;15488;48.114;11.532;2023-04-15T01:46:36;94244.00;;;14.10
15680;BMP180;15488;48.114;11.532;2023-04-15T01:49:04;94243.00;;;14.10
15680;BMP180;15488;48.114;11.532;2023-04-15T01:51:31;94248.00;;;14.10
15680;BMP180;15488;48.114;11.532;2023-04-15T01:53:59;94252.00;;;14.10
15680;BMP180;15488;48.114;11.532;2023-04-15T01:56:26;94252.00;;;14.00
15680;BMP180;15488;48.114;11.532;2023-04-15T01:58:54;94249.00;;;14.00
15680;BMP180;15488;48.114;11.532;2023-04-15T02:01:23;94248.00;;;14.00
15680;BMP180;15488;48.114;11.532;2023-04-15T02:03:50;94252.00;;;14.00
15680;BMP180;15488;48.114;11.532;2023-04-15T02:06:18;94250.00;;;14.00
15680;BMP180;15488;48.114;11.532;2023-04-15T02:08:46;94252.00;;;13.90
15680;BMP180;15488;48.114;11.532;2023-04-15T02:11:13;94250.00;;;14.00
15680;BMP180;15488;48.114;11.532;2023-04-15T02:13:41;94250.00;;;14.00
15680;BMP180;15488;48.114;11.532;2023-04-15T02:16:15;94250.00;;;14.00
15680;BMP180;15488;48.114;11.532;2023-04-15T02:18:45;94247.00;;;14.00
15680;BMP180;15488;48.114;11.532;2023-04-15T02:21:13;94239.00;;;14.00
15680;BMP180;15488;48.114;11.532;2023-04-15T02:23:41;94244.00;;;14.00
15680;BMP180;15488;48.114;11.532;2023-04-15T02:26:09;94247.00;;;14.00
15680;BMP180;15488;48.114;11.532;2023-04-15T02:28:36;94244.00;;;14.00
15680;BMP180;15488;48.114;11.532;2023-04-15T02:31:05;94248.00;;;14.00
15680;BMP180;15488;48.114;11.532;2023-04-15T02:33:33;94243.00;;;14.00
15680;BMP180;15488;48.114;11.532;2023-04-15T02:36:03;94249.00;;;14.00
15680;BMP180;15488;48.114;11.532;2023-04-15T02:38:31;94240.00;;;14.00
15680;BMP180;15488;48.114;11.532;2023-04-15T02:40:58;94240.00;;;14.00
15680;BMP180;15488;48.114;11.532;2023-04-15T02:43:26;94246.00;;;14.00
15680;BMP180;15488;48.114;11.532;2023-04-15T02:45:54;94243.00;;;13.90
15680;BMP180;15488;48.114;11.532;2023-04-15T02:48:21;94238.00;;;13.90
15680;BMP180;15488;48.114;11.532;2023-04-15T02:50:48;94238.00;;;13.90
15680;BMP180;15488;48.114;11.532;2023-04-15T02:53:17;94236.00;;;13.90
15680;BMP180;15488;48.114;11.532;2023-04-15T02:55:45;94233.00;;;13.80
15680;BMP180;15488;48.114;11.532;2023-04-15T02:58:13;94226.00;;;13.70
15680;BMP180;15488;48.114;11.532;2023-04-15T03:00:40;94229.00;;;13.80
15680;BMP180;15488;48.114;11.532;2023-04-15T03:03:08;94231.00;;;13.70
15680;BMP180;15488;48.114;11.532;2023-04-15T03:05:35;94227.00;;;13.70
15680;BMP180;15488;48.114;11.532;2023-04-15T03:08:04;94228.00;;;13.60
15680;BMP180;15488;48.114;11.532;2023-04-15T03:10:33;94231.00;;;13.60
15680;BMP180;15488;48.114;11.532;2023-04-15T03:13:00;94238.00;;;13.60
15680;BMP180;15488;48.114;11.532;2023-04-15T03:15:28;94230.00;;;13.60
15680;BMP180;15488;48.114;11.532;2023-04-15T03:17:55;94227.00;;;13.60
15680;BMP180;15488;48.114;11.532;2023-04-15T03:20:23;94235.00;;;13.60
15680;BMP180;15488;48.114;11.532;2023-04-15T03:22:50;94243.00;;;13.60
15680;BMP180;15488;48.114;11.532;2023-04-15T03:25:18;94245.00;;;13.60
15680;BMP180;15488;48.114;11.532;2023-04-15T03:27:46;94242.00;;;13.60
15680;BMP180;15488;48.114;11.532;2023-04-15T03:30:14;94252.00;;;13.70
15680;BMP180;15488;48.114;11.532;2023-04-15T03:32:42;94217.00;;;13.70
15680;BMP180;15488;48.114;11.532;2023-04-15T03:35:09;94248.00;;;13.70
15680;BMP180;15488;48.114;11.532;2023-04-15T03:37:37;94250.00;;;13.80
15680;BMP180;15488;48.114;11.532;2023-04-15T03:40:05;94253.00;;;13.80
15680;BMP180;15488;48.114;11.532;2023-04-15T03:42:33;94252.00;;;13.80
15680;BMP180;15488;48.114;11.532;2023-04-15T03:45:02;94247.00;;;13.80
15680;BMP180;15488;48.114;11.532;2023-04-15T03:47:29;94247.00;;;13.80
15680;BMP180;15488;48.114;11.532;2023-04-15T03:49:57;94253.00;;;13.90
15680;BMP180;15488;48.114;11.532;2023-04-15T03:52:24;94253.00;;;13.90
15680;BMP180;15488;48.114;11.532;2023-04-15T03:54:51;94255.00;;;13.90
15680;BMP180;15488;48.114;11.532;2023-04-15T03:57:19;94251.00;;;14.00
15680;BMP180;15488;48.114;11.532;2023-04-15T03:59:46;94255.00;;;14.00
15680;BMP180;15488;48.114;11.532;2023-04-15T04:02:15;94255.00;;;14.00
15680;BMP180;15488;48.114;11.532;2023-04-15T04:04:43;94258.00;;;14.00
15680;BMP180;15488;48.114;11.532;2023-04-15T04:07:14;94257.00;;;14.10
15680;BMP180;15488;48.114;11.532;2023-04-15T04:09:42;94251.00;;;14.00
15680;BMP180;15488;48.114;11.532;2023-04-15T04:12:10;94251.00;;;14.10
15680;BMP180;15488;48.114;11.532;2023-04-15T04:14:37;94256.00;;;14.00
15680;BMP180;15488;48.114;11.532;2023-04-15T04:17:05;94247.00;;;14.10
15680;BMP180;15488;48.114;11.532;2023-04-15T04:19:33;94258.00;;;14.00
15680;BMP180;15488;48.114;11.532;2023-04-15T04:22:01;94250.00;;;14.00
15680;BMP180;15488;48.114;11.532;2023-04-15T04:24:28;94260.00;;;14.10
15680;BMP180;15488;48.114;11.532;2023-04-15T04:26:56;94256.00;;;14.10
15680;BMP180;15488;48.114;11.532;2023-04-15T04:29:24;94254.00;;;14.10
15680;BMP180;15488;48.114;11.532;2023-04-15T04:31:52;94263.00;;;14.10
15680;BMP180;15488;48.114;11.532;2023-04-15T04:34:19;94255.00;;;14.10
15680;BMP180;15488;48.114;11.532;2023-04-15T04:36:48;94253.00;;;14.10
15680;BMP180;15488;48.114;11.532;2023-04-15T04:39:15;94254.00;;;14.00
15680;BMP180;15488;48.114;11.532;2023-04-15T04:41:44;94263.00;;;14.10
15680;BMP180;15488;48.114;11.532;2023-04-15T04:44:11;94263.00;;;14.00
15680;BMP180;15488;48.114;11.532;2023-04-15T04:46:39;94266.00;;;14.00
15680;BMP180;15488;48.114;11.532;2023-04-15T04:49:06;94259.00;;;13.90
15680;BMP180;15488;48.114;11.532;2023-04-15T04:51:34;94263.00;;;13.90
15680;BMP180;15488;48.114;11.532;2023-04-15T04:54:03;94266.00;;;13.80
15680;BMP180;15488;48.114;11.532;2023-04-15T04:56:31;94267.00;;;13.80
15680;BMP180;15488;48.114;11.532;2023-04-15T04:58:59;94265.00;;;13.80
15680;BMP180;15488;48.114;11.532;2023-04-15T05:01:26;94260.00;;;13.80
15680;BMP180;15488;48.114;11.532;2023-04-15T05:03:55;94269.00;;;13.80
15680;BMP180;15488;48.114;11.532;2023-04-15T05:06:22;94260.00;;;13.80
15680;BMP180;15488;48.114;11.532;2023-04-15T05:08:50;94265.00;;;13.80
15680;BMP180;15488;48.114;11.532;2023-04-15T05:11:19;94259.00;;;13.80
15680;BMP180;15488;48.114;11.532;2023-04-15T05:13:46;94260.00;;;13.80
15680;BMP180;15488;48.114;11.532;2023-04-15T05:16:14;94260.00;;;13.90
15680;BMP180;15488;48.114;11.532;2023-04-15T05:18:42;94258.00;;;13.80
15680;BMP180;15488;48.114;11.532;2023-04-15T05:21:09;94260.00;;;13.90
15680;BMP180;15488;48.114;11.532;2023-04-15T05:23:36;94259.00;;;13.90
15680;BMP180;15488;48.114;11.532;2023-04-15T05:26:04;94261.00;;;13.90
15680;BMP180;15488;48.114;11.532;2023-04-15T05:28:33;94266.00;;;13.90
15680;BMP180;15488;48.114;11.532;2023-04-15T05:31:00;94265.00;;;13.90
15680;BMP180;15488;48.114;11.532;2023-04-15T05:33:28;94266.00;;;13.80
15680;BMP180;15488;48.114;11.532;2023-04-15T05:35:55;94264.00;;;13.70
15680;BMP180;15488;48.114;11.532;2023-04-15T05:38:23;94267.00;;;13.70
15680;BMP180;15488;48.114;11.532;2023-04-15T05:40:50;94269.00;;;13.80
15680;BMP180;15488;48.114;11.532;2023-04-15T05:43:18;94208.00;;;13.80
15680;BMP180;15488;48.114;11.532;2023-04-15T05:45:47;94273.00;;;13.80
15680;BMP180;15488;48.114;11.532;2023-04-15T05:48:14;94268.00;;;13.70
15680;BMP180;15488;48.114;11.532;2023-04-15T05:50:42;94266.00;;;13.70
15680;BMP180;15488;48.114;11.532;2023-04-15T05:53:10;94275.00;;;13.70
15680;BMP180;15488;48.114;11.532;2023-04-15T05:55:37;94268.00;;;13.70
15680;BMP180;15488;48.114;11.532;2023-04-15T05:58:04;94260.00;;;13.70
15680;BMP180;15488;48.114;11.532;2023-04-15T06:00:32;94267.00;;;13.60
15680;BMP180;15488;48.114;11.532;2023-04-15T06:03:01;94264.00;;;13.60
15680;BMP180;15488;48.114;11.532;2023-04-15T06:05:29;94261.00;;;13.60
15680;BMP180;15488;48.114;11.532;2023-04-15T06:07:56;94270.00;;;13.60
15680;BMP180;15488;48.114;11.532;2023-04-15T06:10:24;94267.00;;;13.60
15680;BMP180;15488;48.114;11.532;2023-04-15T06:12:52;94270.00;;;13.60
15680;BMP180;15488;48.114;11.532;2023-04-15T06:15:20;94265.00;;;13.60
15680;BMP180;15488;48.114;11.532;2023-04-15T06:17:48;94267.00;;;13.60
15680;BMP180;15488;48.114;11.532;2023-04-15T06:20:16;94270.00;;;13.60
15680;BMP180;15488;48.114;11.532;2023-04-15T06:22:44;94259.00;;;13.60
15680;BMP180;15488;48.114;11.532;2023-04-15T06:25:12;94263.00;;;13.50
15680;BMP180;15488;48.114;11.532;2023-04-15T06:27:40;94273.00;;;13.60
15680;BMP180;15488;48.114;11.532;2023-04-15T06:30:08;94267.00;;;13.60
15680;BMP180;15488;48.114;11.532;2023-04-15T06:32:36;94266.00;;;13.70
15680;BMP180;15488;48.114;11.532;2023-04-15T06:35:04;94281.00;;;13.70
15680;BMP180;15488;48.114;11.532;2023-04-15T06:37:33;94268.00;;;13.60
15680;BMP180;15488;48.114;11.532;2023-04-15T06:40:00;94272.00;;;13.70
15680;BMP180;15488;48.114;11.532;2023-04-15T06:42:33;94273.00;;;13.70
15680;BMP180;15488;48.114;11.532;2023-04-15T06:45:02;94279.00;;;13.70
15680;BMP180;15488;48.114;11.532;2023-04-15T06:47:29;94278.00;;;13.70
15680;BMP180;15488;48.114;11.532;2023-04-15T06:49:57;94275.00;;;13.70
15680;BMP180;15488;48.114;11.532;2023-04-15T06:52:24;94274.00;;;13.90
15680;BMP180;15488;48.114;11.532;2023-04-15T06:54:53;94275.00;;;13.90
15680;BMP180;15488;48.114;11.532;2023-04-15T06:57:21;94278.00;;;13.90
15680;BMP180;15488;48.114;11.532;2023-04-15T06:59:48;94285.00;;;13.70
15680;BMP180;15488;48.114;11.532;2023-04-15T07:02:17;94273.00;;;14.00
15680;BMP180;15488;48.114;11.532;2023-04-15T07:04:45;94280.00;;;14.00
15680;BMP180;15488;48.114;11.532;2023-04-15T07:07:12;94279.00;;;14.00
15680;BMP180;15488;48.114;11.532;2023-04-15T07:09:40;94279.00;;;14.00
15680;BMP180;15488;48.114;11.532;2023-04-15T07:12:09;94280.00;;;14.10
15680;BMP180;15488;48.114;11.532;2023-04-15T07:14:36;94278.00;;;14.20
15680;BMP180;15488;48.114;11.532;2023-04-15T07:17:04;94285.00;;;14.30
15680;BMP180;15488;48.114;11.532;2023-04-15T07:19:31;94275.00;;;14.40
15680;BMP180;15488;48.114;11.532;2023-04-15T07:21:59;94280.00;;;14.50
15680;BMP180;15488;48.114;11.532;2023-04-15T07:24:26;94277.00;;;14.50
15680;BMP180;15488;48.114;11.532;2023-04-15T07:26:54;94277.00;;;14.50
15680;BMP180;15488;48.114;11.532;2023-04-15T07:29:24;94281.00;;;14.50
15680;BMP180;15488;48.114;11.532;2023-04-15T07:31:52;94287.00;;;14.60
15680;BMP180;15488;48.114;11.532;2023-04-15T07:34:20;94279.00;;;14.60
15680;BMP180;15488;48.114;11.532;2023-04-15T07:36:47;94286.00;;;14.80
15680;BMP180;15488;48.114;11.532;2023-04-15T07:39:15;94291.00;;;14.80
15680;BMP180;15488;48.114;11.532;2023-04-15T07:41:43;94288.00;;;14.90
15680;BMP180;15488;48.114;11.532;2023-04-15T07:44:11;94287.00;;;15.00
15680;BMP180;15488;48.114;11.532;2023-04-15T07:46:40;94293.00;;;15.00
15680;BMP180;15488;48.114;11.532;2023-04-15T07:49:07;94285.00;;;15.00
15680;BMP180;15488;48.114;11.532;2023-04-15T07:51:35;94296.00;;;15.20
15680;BMP180;15488;48.114;11.532;2023-04-15T07:54:02;94284.00;;;15.30
15680;BMP180;15488;48.114;11.532;2023-04-15T07:56:30;94292.00;;;15.30
15680;BMP180;15488;48.114;11.532;2023-04-15T07:58:57;94298.00;;;15.40
15680;BMP180;15488;48.114;11.532;2023-04-15T08:01:27;94290.00;;;15.40
15680;BMP180;15488;48.114;11.532;2023-04-15T08:03:55;94301.00;;;15.50
15680;BMP180;15488;48.114;11.532;2023-04-15T08:06:23;94291.00;;;15.50
15680;BMP180;15488;48.114;11.532;2023-04-15T08:08:51;94291.00;;;15.60
15680;BMP180;15488;48.114;11.532;2023-04-15T08:11:19;94286.00;;;15.60
15680;BMP180;15488;48.114;11.532;2023-04-15T08:13:48;94282.00;;;15.70
15680;BMP180;15488;48.114;11.532;2023-04-15T08:16:20;94280.00;;;15.80
15680;BMP180;15488;48.114;11.532;2023-04-15T08:18:48;94276.00;;;15.80
15680;BMP180;15488;48.114;11.532;2023-04-15T08:21:18;94276.00;;;15.90
15680;BMP180;15488;48.114;11.532;2023-04-15T08:23:47;94278.00;;;16.00
15680;BMP180;15488;48.114;11.532;2023-04-15T08:26:15;94282.00;;;16.10
15680;BMP180;15488;48.114;11.532;2023-04-15T08:28:45;94286.00;;;16.20
15680;BMP180;15488;48.114;11.532;2023-04-15T08:31:17;94286.00;;;16.30
15680;BMP180;15488;48.114;11.532;2023-04-15T08:33:48;94286.00;;;16.40
15680;BMP180;15488;48.114;11.532;2023-04-15T08:36:21;94290.00;;;16.50
15680;BMP180;15488;48.114;11.532;2023-04-15T08:38:49;94290.00;;;16.60
15680;BMP180;15488;48.114;11.532;2023-04-15T08:41:21;94278.00;;;16.60
15680;BMP180;15488;48.114;11.532;2023-04-15T08:43:53;94290.00;;;16.50
15680;BMP180;15488;48.114;11.532;2023-04-15T08:46:23;94281.00;;;16.50
15680;BMP180;15488;48.114;11.532;2023-04-15T08:48:53;94279.00;;;16.50
15680;BMP180;15488;48.114;11.532;2023-04-15T08:51:27;94281.00;;;16.50
15680;BMP180;15488;48.114;11.532;2023-04-15T08:54:01;94283.00;;;16.50
15680;BMP180;15488;48.114;11.532;2023-04-15T08:56:31;94287.00;;;16.60
15680;BMP180;15488;48.114;11.532;2023-04-15T08:58:59;94283.00;;;16.60
15680;BMP180;15488;48.114;11.532;2023-04-15T09:01:27;94282.00;;;16.70
15680;BMP180;15488;48.114;11.532;2023-04-15T09:03:55;94292.00;;;16.60
15680;BMP180;15488;48.114;11.532;2023-04-15T09:06:25;94293.00;;;16.60
15680;BMP180;15488;48.114;11.532;2023-04-15T09:08:52;94237.00;;;16.70
15680;BMP180;15488;48.114;11.532;2023-04-15T09:11:21;94289.00;;;16.70
15680;BMP180;15488;48.114;11.532;2023-04-15T09:13:48;94287.00;;;16.70
15680;BMP180;15488;48.114;11.532;2023-04-15T09:16:16;94297.00;;;16.80
15680;BMP180;15488;48.114;11.532;2023-04-15T09:18:44;94298.00;;;16.70
15680;BMP180;15488;48.114;11.532;2023-04-15T09:21:13;94300.00;;;16.80
15680;BMP180;15488;48.114;11.532;2023-04-15T09:23:54;94310.00;;;16.90
15680;BMP180;15488;48.114;11.532;2023-04-15T09:26:35;94304.00;;;16.90
15680;BMP180;15488;48.114;11.532;2023-04-15T09:29:07;94302.00;;;17.00
15680;BMP180;15488;48.114;11.532;2023-04-15T09:31:38;94306.00;;;17.10
15680;BMP180;15488;48.114;11.532;2023-04-15T09:34:06;94309.00;;;17.10
15680;BMP180;15488;48.114;11.532;2023-04-15T09:36:51;94311.00;;;17.10
15680;BMP180;15488;48.114;11.532;2023-04-15T09:39:22;94315.00;;;17.20
15680;BMP180;15488;48.114;11.532;2023-04-15T09:42:06;94319.00;;;17.30
15680;BMP180;15488;48.114;11.532;2023-04-15T09:44:37;94326.00;;;17.30
15680;BMP180;15488;48.114;11.532;2023-04-15T09:47:04;94315.00;;;17.40
15680;BMP180;15488;48.114;11.532;2023-04-15T09:49:32;94314.00;;;17.40
15680;BMP180;15488;48.114;11.532;2023-04-15T09:52:00;94313.00;;;17.50
15680;BMP180;15488;48.114;11.532;2023-04-15T09:54:39;94316.00;;;17.50
15680;BMP180;15488;48.114;11.532;2023-04-15T09:57:09;94319.00;;;17.60
15680;BMP180;15488;48.114;11.532;2023-04-15T09:59:37;94320.00;;;17.60
15680;BMP180;15488;48.114;11.532;2023-04-15T10:02:06;94320.00;;;17.60
15680;BMP180;15488;48.114;11.532;2023-04-15T10:04:36;94335.00;;;17.70
15680;BMP180;15488;48.114;11.532;2023-04-15T10:07:07;94320.00;;;17.70
15680;BMP180;15488;48.114;11.532;2023-04-15T10:09:37;94329.00;;;17.80
15680;BMP180;15488;48.114;11.532;2023-04-15T10:12:06;94329.00;;;17.80
15680;BMP180;15488;48.114;11.532;2023-04-15T10:14:35;94324.00;;;17.80
15680;BMP180;15488;48.114;11.532;2023-04-15T10:17:05;94325.00;;;17.80
15680;BMP180;15488;48.114;11.532;2023-04-15T10:19:36;94316.00;;;17.80
15680;BMP180;15488;48.114;11.532;2023-04-15T10:22:03;94324.00;;;17.90
15680;BMP180;15488;48.114;11.532;2023-04-15T10:24:31;94328.00;;;17.90
15680;BMP180;15488;48.114;11.532;2023-04-15T10:27:02;94319.00;;;17.90
15680;BMP180;15488;48.114;11.532;2023-04-15T10:29:30;94320.00;;;17.90
15680;BMP180;15488;48.114;11.532;2023-04-15T10:31:58;94329.00;;;17.90
15680;BMP180;15488;48.114;11.532;2023-04-15T10:34:27;94330.00;;;17.90
15680;BMP180;15488;48.114;11.532;2023-04-15T10:37:00;94334.00;;;17.90
15680;BMP180;15488;48.114;11.532;2023-04-15T10:39:42;94341.00;;;17.90
15680;BMP180;15488;48.114;11.532;2023-04-15T10:42:13;94339.00;;;17.90
15680;BMP180;15488;48.114;11.532;2023-04-15T10:44:42;94337.00;;;17.90
15680;BMP180;15488;48.114;11.532;2023-04-15T10:47:12;94331.00;;;18.00
15680;BMP180;15488;48.114;11.532;2023-04-15T10:49:45;94343.00;;;18.00
15680;BMP180;15488;48.114;11.532;2023-04-15T10:52:15;94344.00;;;18.00
15680;BMP180;15488;48.114;11.532;2023-04-15T10:54:43;94291.00;;;18.00
15680;BMP180;15488;48.114;11.532;2023-04-15T10:57:20;94332.00;;;18.00
15680;BMP180;15488;48.114;11.532;2023-04-15T11:00:08;94342.00;;;18.10
15680;BMP180;15488;48.114;11.532;2023-04-15T11:02:54;94350.00;;;18.10
15680;BMP180;15488;48.114;11.532;2023-04-15T11:08:12;94341.00;;;18.20
15680;BMP180;15488;48.114;11.532;2023-04-15T11:10:55;94346.00;;;18.20
15680;BMP180;15488;48.114;11.532;2023-04-15T11:13:30;94344.00;;;18.20
15680;BMP180;15488;48.114;11.532;2023-04-15T11:16:00;94346.00;;;18.30
15680;BMP180;15488;48.114;11.532;2023-04-15T11:18:30;94349.00;;;18.30
15680;BMP180;15488;48.114;11.532;2023-04-15T11:21:02;94345.00;;;18.40
15680;BMP180;15488;48.114;11.532;2023-04-15T11:23:32;94345.00;;;18.40
15680;BMP180;15488;48.114;11.532;2023-04-15T11:26:01;94344.00;;;18.40
15680;BMP180;15488;48.114;11.532;2023-04-15T11:28:38;94344.00;;;18.40
15680;BMP180;15488;48.114;11.532;2023-04-15T11:31:08;94345.00;;;18.50
15680;BMP180;15488;48.114;11.532;2023-04-15T11:33:37;94356.00;;;18.50
15680;BMP180;15488;48.114;11.532;2023-04-15T11:36:06;94353.00;;;18.50
15680;BMP180;15488;48.114;11.532;2023-04-15T11:38:34;94354.00;;;18.40
15680;BMP180;15488;48.114;11.532;2023-04-15T11:41:03;94357.00;;;18.50
15680;BMP180;15488;48.114;11.532;2023-04-15T11:43:32;94353.00;;;18.40
15680;BMP180;15488;48.114;11.532;2023-04-15T11:46:05;94360.00;;;18.40
15680;BMP180;15488;48.114;11.532;2023-04-15T11:48:35;94370.00;;;18.40
15680;BMP180;15488;48.114;11.532;2023-04-15T11:51:06;94356.00;;;18.40
15680;BMP180;15488;48.114;11.532;2023-04-15T11:53:38;94367.00;;;18.30
15680;BMP180;15488;48.114;11.532;2023-04-15T11:56:07;94364.00;;;18.30
15680;BMP180;15488;48.114;11.532;2023-04-15T11:58:37;94368.00;;;18.20
15680;BMP180;15488;48.114;11.532;2023-04-15T12:01:06;94361.00;;;18.20
15680;BMP180;15488;48.114;11.532;2023-04-15T12:03:38;94372.00;;;18.10
15680;BMP180;15488;48.114;11.532;2023-04-15T12:06:12;94371.00;;;18.00
15680;BMP180;15488;48.114;11.532;2023-04-15T12:08:58;94383.00;;;18.00
15680;BMP180;15488;48.114;11.532;2023-04-15T12:11:34;94372.00;;;17.90
15680;BMP180;15488;48.114;11.532;2023-04-15T12:14:11;94377.00;;;17.90
15680;BMP180;15488;48.114;11.532;2023-04-15T12:16:40;94387.00;;;17.90
15680;BMP180;15488;48.114;11.532;2023-04-15T12:19:11;94387.00;;;17.80
15680;BMP180;15488;48.114;11.532;2023-04-15T12:21:40;94388.00;;;17.80
15680;BMP180;15488;48.114;11.532;2023-04-15T12:24:09;94397.00;;;17.80
15680;BMP180;15488;48.114;11.532;2023-04-15T12:26:43;94401.00;;;17.70
15680;BMP180;15488;48.114;11.532;2023-04-15T12:29:13;94404.00;;;17.60
15680;BMP180;15488;48.114;11.532;2023-04-15T12:31:52;94401.00;;;17.60
15680;BMP180;15488;48.114;11.532;2023-04-15T12:34:27;94402.00;;;17.50
15680;BMP180;15488;48.114;11.532;2023-04-15T12:36:55;94401.00;;;17.50
15680;BMP180;15488;48.114;11.532;2023-04-15T12:39:24;94407.00;;;17.50
15680;BMP180;15488;48.114;11.532;2023-04-15T12:41:51;94408.00;;;17.50
15680;BMP180;15488;48.114;11.532;2023-04-15T12:44:22;94411.00;;;17.50
15680;BMP180;15488;48.114;11.532;2023-04-15T12:46:50;94412.00;;;17.40
15680;BMP180;15488;48.114;11.532;2023-04-15T12:49:17;94420.00;;;17.50
15680;BMP180;15488;48.114;11.532;2023-04-15T12:51:49;94413.00;;;17.60
15680;BMP180;15488;48.114;11.532;2023-04-15T12:54:17;94413.00;;;17.60
15680;BMP180;15488;48.114;11.532;2023-04-15T12:56:45;94420.00;;;17.60
15680;BMP180;15488;48.114;11.532;2023-04-15T12:59:12;94418.00;;;17.60
15680;BMP180;15488;48.114;11.532;2023-04-15T13:01:42;94426.00;;;17.70
15680;BMP180;15488;48.114;11.532;2023-04-15T13:04:09;94423.00;;;17.80
15680;BMP180;15488;48.114;11.532;2023-04-15T13:06:36;94420.00;;;17.80
15680;BMP180;15488;48.114;11.532;2023-04-15T13:09:04;94421.00;;;17.90
15680;BMP180;15488;48.114;11.532;2023-04-15T13:11:32;94428.00;;;17.80
15680;BMP180;15488;48.114;11.532;2023-04-15T13:14:01;94436.00;;;17.80
15680;BMP180;15488;48.114;11.532;2023-04-15T13:16:29;94444.00;;;17.80
15680;BMP180;15488;48.114;11.532;2023-04-15T13:18:59;94435.00;;;17.90
15680;BMP180;15488;48.114;11.532;2023-04-15T13:21:27;94448.00;;;17.90
15680;BMP180;15488;48.114;11.532;2023-04-15T13:23:54;94442.00;;;18.00
15680;BMP180;15488;48.114;11.532;2023-04-15T13:26:22;94455.00;;;18.00
15680;BMP180;15488;48.114;11.532;2023-04-15T13:28:49;94452.00;;;18.00
15680;BMP180;15488;48.114;11.532;2023-04-15T13:31:17;94458.00;;;18.00
15680;BMP180;15488;48.114;11.532;2023-04-15T13:33:46;94461.00;;;18.00
15680;BMP180;15488;48.114;11.532;2023-04-15T13:36:15;94464.00;;;18.00
15680;BMP180;15488;48.114;11.532;2023-04-15T13:38:43;94461.00;;;18.00
15680;BMP180;15488;48.114;11.532;2023-04-15T13:41:10;94465.00;;;18.00
15680;BMP180;15488;48.114;11.532;2023-04-15T13:43:38;94479.00;;;18.00
15680;BMP180;15488;48.114;11.532;2023-04-15T13:46:05;94483.00;;;18.00
15680;BMP180;15488;48.114;11.532;2023-04-15T13:48:33;94479.00;;;17.90
15680;BMP180;15488;48.114;11.532;2023-04-15T13:51:00;94475.00;;;17.90
15680;BMP180;15488;48.114;11.532;2023-04-15T13:53:29;94488.00;;;17.90
15680;BMP180;15488;48.114;11.532;2023-04-15T13:55:57;94485.00;;;17.80
15680;BMP180;15488;48.114;11.532;2023-04-15T13:58:24;94482.00;;;17.80
15680;BMP180;15488;48.114;11.532;2023-04-15T14:00:51;94490.00;;;17.90
15680;BMP180;15488;48.114;11.532;2023-04-15T14:03:21;94498.00;;;17.80
15680;BMP180;15488;48.114;11.532;2023-04-15T14:05:49;94494.00;;;17.80
15680;BMP180;15488;48.114;11.532;2023-04-15T14:08:20;94492.00;;;17.70